Time;durP1;ratioP1;P1;durP2;ratioP2;P2;SDS_P1;SDS_P2;PMS_P1;PMS_P2;Temp;Humidity;BMP_temperature;BMP_pressure;BME280_temperature;BME280_humidity;BME280_pressure;Samples;Min_cycle;Max_cycle;Signal;HPM_P1;HPM_P2
2023/06/19 00:00:39;;;;;;;3.63;3.33;;;16.00;99.90;;;;;;6108287;23;20098;-67
2023/06/19 00:03:05;;;;;;;3.80;3.50;;;15.90;99.90;;;;;;6081370;23;20021;-66
2023/06/19 00:05:31;;;;;;;4.82;4.35;;;15.80;99.90;;;;;;6110107;23;20317;-66
2023/06/19 00:07:56;;;;;;;4.30;3.35;;;15.80;99.90;;;;;;6110763;23;20081;-67
2023/06/19 00:10:22;;;;;;;3.97;3.58;;;15.80;99.90;;;;;;6104670;23;20002;-66
2023/06/19 00:12:48;;;;;;;3.97;3.25;;;15.80;99.90;;;;;;6111290;23;20013;-67
2023/06/19 00:15:13;;;;;;;4.38;3.50;;;15.70;99.90;;;;;;6109359;23;20009;-66
2023/06/19 00:17:39;;;;;;;4.65;4.22;;;15.70;99.90;;;;;;6111593;23;20014;-67
2023/06/19 00:20:05;;;;;;;3.75;3.45;;;15.60;99.90;;;;;;6108055;23;20479;-67
2023/06/19 00:22:31;;;;;;;4.78;3.58;;;15.70;99.90;;;;;;6109088;23;20386;-67
2023/06/19 00:24:57;;;;;;;4.57;3.85;;;15.70;99.90;;;;;;6110802;23;20085;-66
2023/06/19 00:27:24;;;;;;;4.38;3.80;;;15.70;99.90;;;;;;6109456;23;20010;-67
2023/06/19 00:29:51;;;;;;;3.75;3.45;;;15.70;99.90;;;;;;6110410;23;20014;-67
2023/06/19 00:32:17;;;;;;;6.47;3.63;;;15.70;99.90;;;;;;6110776;23;20014;-67
2023/06/19 00:34:42;;;;;;;5.57;3.75;;;15.70;99.90;;;;;;6108926;23;20006;-66
2023/06/19 00:37:09;;;;;;;4.25;3.40;;;15.60;99.90;;;;;;6084269;23;20028;-67
2023/06/19 00:39:35;;;;;;;4.00;3.40;;;15.50;99.90;;;;;;6110189;23;20065;-71
2023/06/19 00:42:01;;;;;;;4.13;3.60;;;15.40;99.90;;;;;;6105796;23;20033;-71
2023/06/19 00:44:26;;;;;;;5.65;3.50;;;15.40;99.90;;;;;;6104677;23;20077;-71
2023/06/19 00:46:58;;;;;;;4.82;3.80;;;15.40;99.90;;;;;;6108176;23;20521;-71
2023/06/19 00:49:26;;;;;;;4.00;3.70;;;15.40;99.90;;;;;;6109425;23;20045;-72
2023/06/19 00:51:53;;;;;;;3.92;3.60;;;15.40;99.90;;;;;;6108656;23;20082;-71
2023/06/19 00:54:19;;;;;;;4.65;3.42;;;15.40;99.90;;;;;;6105761;23;20020;-71
2023/06/19 00:56:45;;;;;;;5.13;3.38;;;15.40;99.90;;;;;;6108871;23;20005;-71
2023/06/19 00:59:19;;;;;;;5.28;3.58;;;15.30;99.90;;;;;;6107002;23;20010;-71
2023/06/19 01:01:46;;;;;;;5.05;3.47;;;15.30;99.90;;;;;;6107188;23;20006;-71
2023/06/19 01:04:12;;;;;;;3.80;3.45;;;15.20;99.90;;;;;;6081477;23;20053;-71
2023/06/19 01:06:57;;;;;;;4.35;3.63;;;15.20;99.90;;;;;;6106235;23;20518;-71
2023/06/19 01:09:29;;;;;;;5.65;4.05;;;15.20;99.90;;;;;;6106639;23;20105;-72
2023/06/19 01:12:01;;;;;;;6.35;3.58;;;15.10;99.90;;;;;;6104823;23;20060;-70
2023/06/19 01:14:43;;;;;;;5.20;3.20;;;15.10;99.90;;;;;;6105071;23;20336;-72
2023/06/19 01:17:09;;;;;;;3.60;3.30;;;15.00;99.90;;;;;;6108003;23;20016;-71
2023/06/19 01:19:35;;;;;;;4.25;3.47;;;15.00;99.90;;;;;;6105152;23;20468;-71
2023/06/19 01:22:03;;;;;;;5.10;3.75;;;14.90;99.90;;;;;;6109506;23;20077;-71
2023/06/19 01:24:29;;;;;;;4.85;4.18;;;14.90;99.90;;;;;;6103866;23;20014;-70
2023/06/19 01:26:55;;;;;;;4.70;3.75;;;14.90;99.90;;;;;;6108023;23;20025;-70
2023/06/19 01:29:21;;;;;;;4.53;3.90;;;15.00;99.90;;;;;;6107863;23;20014;-71
2023/06/19 01:31:50;;;;;;;6.18;3.58;;;15.10;99.90;;;;;;6105333;23;20029;-71
2023/06/19 01:34:19;;;;;;;4.72;4.05;;;15.10;99.90;;;;;;6107143;23;20794;-66
2023/06/19 01:36:47;;;;;;;5.18;3.70;;;15.00;99.90;;;;;;6109202;23;20002;-66
2023/06/19 01:39:15;;;;;;;3.58;3.28;;;15.00;99.90;;;;;;6109138;23;20060;-67
2023/06/19 01:41:42;;;;;;;4.28;3.88;;;15.00;99.90;;;;;;6109306;23;20013;-66
2023/06/19 01:44:08;;;;;;;5.43;3.72;;;15.00;99.90;;;;;;6103418;23;20085;-66
2023/06/19 01:46:34;;;;;;;4.65;3.75;;;14.90;99.90;;;;;;6109054;23;20002;-67
2023/06/19 01:49:00;;;;;;;4.68;4.00;;;15.00;99.90;;;;;;6111283;23;20026;-66
2023/06/19 01:51:25;;;;;;;5.78;3.63;;;15.00;99.90;;;;;;6109689;23;20057;-67
2023/06/19 01:53:51;;;;;;;4.47;3.80;;;14.90;99.90;;;;;;6080813;23;20002;-71
2023/06/19 01:56:17;;;;;;;6.00;3.67;;;14.90;99.90;;;;;;6112097;23;20032;-70
2023/06/19 01:58:42;;;;;;;4.25;3.70;;;14.90;99.90;;;;;;6110946;23;20002;-70
2023/06/19 02:01:08;;;;;;;6.10;4.03;;;15.00;99.90;;;;;;6110188;23;20006;-71
2023/06/19 02:03:33;;;;;;;4.15;3.38;;;14.90;99.90;;;;;;6111279;23;20117;-71
2023/06/19 02:05:59;;;;;;;4.05;3.65;;;14.90;99.90;;;;;;6111167;23;20076;-70
2023/06/19 02:08:25;;;;;;;3.92;3.63;;;14.80;99.90;;;;;;6110953;23;20103;-71
2023/06/19 02:10:50;;;;;;;3.58;3.28;;;14.80;99.90;;;;;;6114434;23;20030;-71
2023/06/19 02:13:16;;;;;;;4.28;3.85;;;14.80;99.90;;;;;;6111884;23;20013;-71
2023/06/19 02:15:41;;;;;;;4.10;3.70;;;14.70;99.90;;;;;;6112117;23;20010;-70
2023/06/19 02:18:08;;;;;;;3.60;3.30;;;14.70;99.90;;;;;;6110487;23;20049;-70
2023/06/19 02:20:34;;;;;;;4.68;3.83;;;14.80;99.90;;;;;;6108927;23;20010;-70
2023/06/19 02:23:00;;;;;;;4.93;3.90;;;14.70;99.90;;;;;;6109197;23;20735;-71
2023/06/19 02:25:25;;;;;;;4.80;4.18;;;14.70;99.90;;;;;;6107090;23;20097;-70
2023/06/19 02:27:51;;;;;;;5.25;4.20;;;14.70;99.90;;;;;;6107765;23;20038;-70
2023/06/19 02:30:16;;;;;;;4.68;4.15;;;14.60;99.90;;;;;;6110288;23;20029;-70
2023/06/19 02:32:42;;;;;;;4.93;3.88;;;14.60;99.90;;;;;;6107531;23;20006;-71
2023/06/19 02:35:11;;;;;;;4.47;3.40;;;14.70;99.90;;;;;;6106729;23;20010;-70
2023/06/19 02:37:38;;;;;;;3.95;3.65;;;14.70;99.90;;;;;;6106176;23;20746;-71
2023/06/19 02:40:05;;;;;;;4.40;4.00;;;14.60;99.90;;;;;;6110667;23;20010;-71
2023/06/19 02:42:30;;;;;;;4.22;3.40;;;14.50;99.90;;;;;;6106392;23;20010;-70
2023/06/19 02:45:02;;;;;;;3.92;3.50;;;14.30;99.90;;;;;;6106655;23;20526;-70
2023/06/19 02:47:29;;;;;;;;;;;14.30;99.90;;;;;;6111893;23;20013;-70
2023/06/19 02:49:54;;;;;;;6.25;3.60;;;14.30;99.90;;;;;;6111898;23;19932;-70
2023/06/19 02:52:21;;;;;;;4.93;3.42;;;14.30;99.90;;;;;;6111842;23;20010;-70
2023/06/19 02:54:46;;;;;;;4.25;3.42;;;14.30;99.90;;;;;;6111286;23;20014;-70
2023/06/19 02:57:12;;;;;;;4.22;3.80;;;14.30;99.90;;;;;;6111386;23;20006;-70
2023/06/19 02:59:37;;;;;;;3.90;3.60;;;14.30;99.90;;;;;;6108045;23;20009;-70
2023/06/19 03:02:03;;;;;;;4.20;3.80;;;14.30;99.90;;;;;;6110778;23;20002;-71
2023/06/19 03:04:29;;;;;;;8.15;4.38;;;14.30;99.90;;;;;;6112091;23;20097;-70
2023/06/19 03:06:55;;;;;;;4.40;4.00;;;14.40;99.90;;;;;;6111776;23;20378;-66
2023/06/19 03:09:20;;;;;;;3.70;3.40;;;14.40;99.90;;;;;;6108828;23;20010;-66
2023/06/19 03:11:46;;;;;;;3.97;3.65;;;14.50;99.90;;;;;;6109207;23;20002;-67
2023/06/19 03:14:11;;;;;;;3.97;3.67;;;14.50;99.90;;;;;;6106719;23;20009;-66
2023/06/19 03:16:37;;;;;;;4.53;4.13;;;14.50;99.90;;;;;;6106412;23;20013;-67
2023/06/19 03:19:03;;;;;;;4.35;3.50;;;14.50;99.90;;;;;;6104889;23;20006;-67
2023/06/19 03:21:28;;;;;;;4.43;3.35;;;14.40;99.90;;;;;;6107174;23;20010;-67
2023/06/19 03:23:54;;;;;;;5.10;3.42;;;14.40;99.90;;;;;;6105512;23;20206;-67
2023/06/19 03:26:20;;;;;;;5.38;3.88;;;14.30;99.90;;;;;;6109059;23;20013;-66
2023/06/19 03:28:48;;;;;;;4.32;3.67;;;14.30;99.90;;;;;;6108504;23;20120;-66
2023/06/19 03:31:15;;;;;;;4.20;3.53;;;14.30;99.90;;;;;;6111824;23;20002;-67
2023/06/19 03:33:41;;;;;;;4.93;3.75;;;14.40;99.90;;;;;;6110073;23;20016;-67
2023/06/19 03:36:07;;;;;;;9.73;3.60;;;14.40;99.90;;;;;;6111238;23;20085;-66
2023/06/19 03:38:33;;;;;;;7.28;4.00;;;14.40;99.90;;;;;;6109322;23;20006;-66
2023/06/19 03:40:58;;;;;;;4.22;3.80;;;14.50;99.90;;;;;;6106330;23;20427;-67
2023/06/19 03:43:24;;;;;;;6.53;3.88;;;14.40;99.90;;;;;;6110909;23;20072;-67
2023/06/19 03:45:49;;;;;;;5.78;3.85;;;14.40;99.90;;;;;;6104820;23;20717;-67
2023/06/19 03:48:16;;;;;;;5.72;3.63;;;14.40;99.90;;;;;;6108571;23;20022;-67
2023/06/19 03:50:41;;;;;;;4.70;4.30;;;14.50;99.90;;;;;;6107612;23;20272;-66
2023/06/19 03:53:07;;;;;;;6.07;4.03;;;14.50;99.90;;;;;;6112746;23;20065;-67
2023/06/19 03:55:33;;;;;;;5.47;4.10;;;14.60;99.90;;;;;;6109089;23;20158;-67
2023/06/19 03:57:59;;;;;;;5.60;3.95;;;14.70;99.90;;;;;;6111206;23;20005;-67
2023/06/19 04:00:24;;;;;;;4.05;3.65;;;14.80;99.90;;;;;;6107220;23;20002;-70
2023/06/19 04:02:50;;;;;;;5.35;4.05;;;14.80;99.90;;;;;;6107295;23;20010;-70
2023/06/19 04:05:16;;;;;;;4.90;4.38;;;14.90;99.90;;;;;;6109782;23;20010;-71
2023/06/19 04:07:41;;;;;;;4.50;4.00;;;14.90;99.90;;;;;;6105926;23;20338;-70
2023/06/19 04:10:08;;;;;;;4.68;4.28;;;15.00;99.90;;;;;;6110613;23;20462;-70
2023/06/19 04:12:33;;;;;;;5.47;4.10;;;15.20;99.90;;;;;;6111615;23;20028;-70
2023/06/19 04:14:59;;;;;;;6.40;4.28;;;15.20;99.90;;;;;;6111076;23;20009;-70
2023/06/19 04:17:25;;;;;;;4.50;4.07;;;15.30;99.90;;;;;;6110664;23;20030;-70
2023/06/19 04:19:50;;;;;;;4.53;4.10;;;15.40;99.90;;;;;;6110295;23;20034;-67
2023/06/19 04:22:16;;;;;;;8.32;4.47;;;15.50;99.90;;;;;;6110397;23;20863;-67
2023/06/19 04:24:41;;;;;;;6.07;4.60;;;15.60;99.90;;;;;;6109454;23;20285;-67
2023/06/19 04:27:10;;;;;;;4.85;4.05;;;15.70;99.90;;;;;;6111621;23;20010;-67
2023/06/19 04:29:36;;;;;;;13.60;4.50;;;15.90;99.90;;;;;;6110800;23;20006;-67
2023/06/19 04:32:11;;;;;;;53.83;7.00;;;16.00;99.90;;;;;;6105724;23;20778;-67
2023/06/19 04:34:38;;;;;;;5.53;4.85;;;16.00;99.90;;;;;;6106465;23;20307;-67
2023/06/19 04:37:04;;;;;;;4.70;4.30;;;16.10;99.90;;;;;;6110698;23;20276;-67
2023/06/19 04:39:29;;;;;;;6.72;4.63;;;16.10;99.90;;;;;;6109642;23;20794;-71
2023/06/19 04:41:55;;;;;;;6.40;4.70;;;16.10;99.90;;;;;;6085275;23;20324;-72
2023/06/19 04:44:20;;;;;;;4.80;4.40;;;16.20;99.90;;;;;;6110146;23;20025;-73
2023/06/19 05:01:35;;;;;;;6.70;4.03;;;17.00;99.90;;;;;;6162287;22;20031;-71
2023/06/19 05:04:00;;;;;;;14.15;5.15;;;17.30;99.90;;;;;;6165476;23;20380;-61
2023/06/19 05:06:26;;;;;;;7.72;4.00;;;17.40;99.90;;;;;;6168269;23;20008;-62
2023/06/19 05:08:52;;;;;;;11.40;4.85;;;17.50;99.90;;;;;;6165054;23;20084;-62
2023/06/19 05:11:18;;;;;;;6.57;4.45;;;17.60;99.90;;;;;;6171222;23;20494;-61
2023/06/19 05:13:43;;;;;;;6.45;4.88;;;17.80;99.90;;;;;;6168272;23;20005;-61
2023/06/19 05:16:09;;;;;;;5.93;4.30;;;17.90;99.90;;;;;;6142189;23;20394;-61
2023/06/19 05:18:35;;;;;;;4.75;4.20;;;18.00;99.90;;;;;;6168961;23;20036;-61
2023/06/19 05:21:00;;;;;;;6.55;4.25;;;18.00;99.90;;;;;;6171777;23;20060;-61
2023/06/19 05:23:26;;;;;;;7.93;4.38;;;18.20;99.90;;;;;;6169916;23;20575;-61
2023/06/19 05:25:52;;;;;;;15.52;4.47;;;18.30;99.90;;;;;;6169976;23;20275;-62
2023/06/19 05:28:17;;;;;;;8.77;4.90;;;18.40;99.90;;;;;;6169210;23;20494;-61
2023/06/19 05:30:43;;;;;;;5.25;4.22;;;18.50;99.90;;;;;;6169629;23;20029;-61
2023/06/19 05:33:09;;;;;;;7.43;4.13;;;18.60;99.90;;;;;;6170269;23;20107;-61
2023/06/19 05:35:35;;;;;;;9.32;4.85;;;18.80;99.90;;;;;;6171431;23;20008;-61
2023/06/19 05:38:00;;;;;;;5.88;3.92;;;18.90;99.90;;;;;;6171218;23;20013;-61
2023/06/19 05:40:26;;;;;;;4.50;3.05;;;19.00;99.90;;;;;;6165292;23;20013;-61
2023/06/19 05:42:52;;;;;;;3.70;3.30;;;19.10;99.90;;;;;;6161174;23;20080;-71
2023/06/19 05:45:17;;;;;;;3.42;3.13;;;19.20;99.90;;;;;;6164888;23;20008;-71
2023/06/19 05:47:43;;;;;;;4.32;3.33;;;19.30;99.90;;;;;;6170126;23;20016;-71
2023/06/19 05:50:09;;;;;;;4.53;3.35;;;19.30;99.90;;;;;;6142219;23;20463;-71
2023/06/19 05:52:35;;;;;;;5.18;3.28;;;19.40;99.90;;;;;;6170687;23;20084;-71
2023/06/19 05:55:00;;;;;;;3.45;3.15;;;19.60;99.90;;;;;;6172072;23;20033;-72
2023/06/19 05:57:26;;;;;;;5.47;2.97;;;19.60;99.90;;;;;;6170183;23;20001;-72
2023/06/19 05:59:52;;;;;;;3.50;3.15;;;19.70;99.90;;;;;;6171571;23;20576;-72
2023/06/19 06:02:19;;;;;;;5.43;3.05;;;19.70;99.90;;;;;;6172065;23;20025;-72
2023/06/19 06:04:45;;;;;;;3.10;2.80;;;19.80;99.90;;;;;;6171448;23;20001;-71
2023/06/19 06:07:11;;;;;;;4.00;3.30;;;19.80;99.90;;;;;;6173126;23;20001;-72
2023/06/19 06:09:37;;;;;;;6.10;3.45;;;19.90;99.90;;;;;;6144424;23;20044;-72
2023/06/19 06:12:03;;;;;;;3.53;3.22;;;19.90;99.90;;;;;;6173739;23;20335;-67
2023/06/19 06:14:29;;;;;;;4.95;3.70;;;20.00;99.90;;;;;;6169634;23;20100;-67
2023/06/19 06:16:54;;;;;;;5.15;3.70;;;20.10;99.90;;;;;;6172062;23;20040;-67
2023/06/19 06:19:22;;;;;;;4.47;3.88;;;20.10;99.90;;;;;;6164954;23;20475;-67
2023/06/19 06:21:48;;;;;;;3.75;3.40;;;20.10;99.90;;;;;;6174715;23;20005;-67
2023/06/19 06:24:14;;;;;;;3.75;3.45;;;20.20;99.90;;;;;;6170641;23;20017;-67
2023/06/19 06:26:39;;;;;;;4.70;3.42;;;20.20;99.90;;;;;;6171915;23;20012;-67
2023/06/19 06:29:05;;;;;;;3.78;3.47;;;20.20;99.90;;;;;;6172613;23;20008;-67
2023/06/19 06:31:30;;;;;;;3.60;3.30;;;20.20;99.90;;;;;;6168926;23;20059;-67
2023/06/19 06:33:56;;;;;;;8.20;3.28;;;20.30;99.90;;;;;;6170962;23;19997;-66
2023/06/19 06:36:22;;;;;;;4.65;3.40;;;20.40;99.90;;;;;;6146531;23;20009;-66
2023/06/19 06:38:47;;;;;;;3.35;2.95;;;20.50;99.90;;;;;;6172218;23;20001;-67
2023/06/19 06:41:13;;;;;;;4.72;3.38;;;20.50;99.90;;;;;;6173402;23;20037;-66
2023/06/19 06:43:42;;;;;;;17.63;3.40;;;20.60;99.90;;;;;;6172543;23;20025;-66
2023/06/19 06:46:08;;;;;;;3.90;3.50;;;20.50;99.90;;;;;;6171443;23;20374;-73
2023/06/19 06:48:34;;;;;;;5.55;3.15;;;20.50;99.90;;;;;;6173007;23;20001;-73
2023/06/19 06:51:01;;;;;;;4.93;3.05;;;20.50;99.90;;;;;;6172107;23;20005;-72
2023/06/19 06:53:28;;;;;;;8.43;3.40;;;20.50;99.90;;;;;;6173433;23;20016;-72
2023/06/19 06:55:54;;;;;;;3.75;3.45;;;20.60;99.90;;;;;;6171196;23;20580;-72
2023/06/19 06:58:20;;;;;;;3.78;3.47;;;20.70;99.90;;;;;;6169124;23;20037;-72
2023/06/19 07:00:45;;;;;;;4.32;2.95;;;20.80;99.90;;;;;;6167634;23;20039;-64
2023/06/19 07:03:11;;;;;;;3.70;3.40;;;20.90;99.90;;;;;;6171051;23;20134;-64
2023/06/19 07:05:37;;;;;;;3.78;3.03;;;20.90;99.90;;;;;;6171750;23;20000;-64
2023/06/19 07:08:03;;;;;;;4.35;3.42;;;21.00;99.90;;;;;;6168657;23;20035;-64
2023/06/19 07:10:30;;;;;;;12.90;3.25;;;21.00;99.90;;;;;;6165797;23;20004;-65
2023/06/19 07:12:56;;;;;;;5.03;3.50;;;21.20;99.90;;;;;;6170647;23;20009;-65
2023/06/19 07:15:21;;;;;;;3.47;3.17;;;21.30;99.90;;;;;;6170847;23;20517;-64
2023/06/19 07:17:47;;;;;;;4.32;3.28;;;21.50;99.90;;;;;;6169383;23;20084;-64
2023/06/19 07:20:15;;;;;;;3.88;3.08;;;21.60;99.90;;;;;;6169919;23;20013;-65
2023/06/19 07:22:41;;;;;;;3.35;3.03;;;21.60;99.90;;;;;;6168279;23;20492;-64
2023/06/19 07:25:07;;;;;;;4.00;3.25;;;21.70;99.90;;;;;;6168296;23;20135;-64
2023/06/19 07:27:33;;;;;;;2.95;2.75;;;21.80;99.90;;;;;;6168757;23;20080;-65
2023/06/19 07:29:59;;;;;;;6.45;2.88;;;21.90;99.90;;;;;;6170179;23;20116;-65
2023/06/19 07:32:24;;;;;;;6.53;2.80;;;22.00;99.90;;;;;;6169621;23;20016;-65
2023/06/19 07:34:50;;;;;;;3.45;2.90;;;22.10;99.90;;;;;;6171661;23;20009;-65
2023/06/19 07:37:18;;;;;;;3.33;3.03;;;22.20;99.90;;;;;;6172621;23;20009;-65
2023/06/19 07:39:45;;;;;;;3.72;3.20;;;22.30;99.90;;;;;;6171387;23;20876;-65
2023/06/19 07:42:11;;;;;;;6.18;3.83;;;22.40;99.90;;;;;;6170995;23;20382;-64
2023/06/19 07:44:36;;;;;;;3.65;3.35;;;22.50;99.90;;;;;;6169685;23;20016;-74
2023/06/19 07:47:02;;;;;;;3.83;3.53;;;22.50;99.90;;;;;;6168632;23;20625;-75
2023/06/19 07:49:28;;;;;;;3.70;3.40;;;22.50;99.90;;;;;;6171390;23;20005;-74
2023/06/19 07:51:53;;;;;;;4.85;3.97;;;22.60;99.90;;;;;;6171071;23;20005;-73
2023/06/19 07:54:19;;;;;;;3.35;2.97;;;22.60;99.90;;;;;;6172710;23;20005;-74
2023/06/19 07:56:45;;;;;;;3.65;3.35;;;22.60;99.90;;;;;;6170949;23;20012;-74
2023/06/19 07:59:11;;;;;;;6.13;3.13;;;22.60;99.90;;;;;;6169690;23;20009;-75
2023/06/19 08:01:36;;;;;;;4.25;3.00;;;22.70;99.90;;;;;;6170616;23;20447;-76
2023/06/19 08:04:02;;;;;;;4.40;3.13;;;22.80;99.90;;;;;;6170977;23;20028;-76
2023/06/19 08:06:27;;;;;;;3.28;3.08;;;22.90;99.90;;;;;;6171657;23;19997;-73
2023/06/19 08:08:53;;;;;;;3.78;3.28;;;23.00;99.90;;;;;;6171793;23;20458;-73
2023/06/19 08:11:19;;;;;;;4.38;3.50;;;23.10;99.90;;;;;;6142831;23;20013;-73
2023/06/19 08:13:45;;;;;;;3.42;3.22;;;23.20;99.90;;;;;;6170889;23;20316;-73
2023/06/19 08:16:10;;;;;;;3.92;3.63;;;23.40;99.90;;;;;;6168906;23;20017;-73
2023/06/19 08:18:36;;;;;;;4.10;3.60;;;23.50;99.90;;;;;;6167881;23;20510;-73
2023/06/19 08:21:02;;;;;;;3.85;3.50;;;23.50;99.90;;;;;;6169480;23;20095;-73
2023/06/19 08:23:27;;;;;;;6.18;3.83;;;23.50;99.90;;;;;;6168424;23;20020;-73
2023/06/19 08:25:53;;;;;;;4.47;3.22;;;23.50;99.90;;;;;;6168773;23;20005;-73
2023/06/19 08:28:19;;;;;;;5.20;3.40;;;23.40;99.90;;;;;;6170821;23;20005;-73
2023/06/19 08:30:45;;;;;;;4.93;3.50;;;23.50;99.90;;;;;;6171957;23;20011;-73
2023/06/19 08:33:12;;;;;;;4.20;3.50;;;23.50;99.90;;;;;;6141126;23;20702;-73
2023/06/19 08:35:38;;;;;;;6.32;3.95;;;23.60;99.90;;;;;;6167766;23;20005;-66
2023/06/19 08:38:04;;;;;;;4.57;3.67;;;23.60;99.90;;;;;;6168769;23;20009;-73
2023/06/19 08:40:30;;;;;;;4.25;3.80;;;23.70;99.90;;;;;;6170151;23;20322;-73
2023/06/19 08:42:56;;;;;;;7.03;4.70;;;23.80;99.90;;;;;;6173040;23;20005;-73
2023/06/19 08:45:22;;;;;;;4.53;3.55;;;23.80;99.90;;;;;;6171380;23;20009;-73
2023/06/19 08:47:48;;;;;;;3.92;3.55;;;23.90;99.90;;;;;;6171409;23;20020;-74
2023/06/19 08:50:15;;;;;;;3.60;3.30;;;23.90;99.90;;;;;;6172505;23;20012;-73
2023/06/19 08:52:41;;;;;;;3.85;3.45;;;23.90;99.90;;;;;;6170531;23;20004;-72
2023/06/19 08:55:07;;;;;;;5.45;3.70;;;24.00;99.90;;;;;;6170558;23;20011;-74
2023/06/19 08:57:34;;;;;;;3.85;3.47;;;24.10;99.90;;;;;;6168232;23;20009;-65
2023/06/19 09:00:00;;;;;;;4.78;3.58;;;24.20;99.90;;;;;;6170215;23;20009;-65
2023/06/19 09:02:40;;;;;;;6.07;3.78;;;24.40;99.90;;;;;;6168399;23;20339;-66
2023/06/19 09:05:14;;;;;;;4.20;3.67;;;24.50;99.90;;;;;;6169744;23;20039;-66
2023/06/19 09:07:40;;;;;;;5.80;3.70;;;24.50;99.90;;;;;;6143719;23;20342;-65
2023/06/19 09:10:17;;;;;;;5.35;3.70;;;24.50;99.90;;;;;;6171718;23;20040;-65
2023/06/19 09:12:44;;;;;;;4.45;3.60;;;24.50;99.90;;;;;;6171366;23;20725;-66
2023/06/19 09:15:14;;;;;;;3.58;3.28;;;24.60;99.90;;;;;;6165435;23;20032;-65
2023/06/19 09:17:40;;;;;;;4.15;3.72;;;24.60;99.90;;;;;;6168188;23;20013;-65
2023/06/19 09:20:07;;;;;;;6.10;3.75;;;24.70;99.90;;;;;;6170510;23;20001;-66
2023/06/19 09:22:32;;;;;;;3.72;3.28;;;24.80;99.90;;;;;;6171883;23;20017;-66
2023/06/19 09:25:02;;;;;;;3.97;3.60;;;24.90;99.90;;;;;;6169947;23;20379;-66
2023/06/19 09:27:33;;;;;;;5.15;3.63;;;25.00;99.90;;;;;;6168844;23;20085;-66
2023/06/19 09:29:58;;;;;;;4.38;3.90;;;25.00;99.90;;;;;;6168420;23;20013;-65
2023/06/19 09:32:26;;;;;;;4.07;3.30;;;25.10;99.90;;;;;;6168700;23;20104;-72
2023/06/19 09:34:58;;;;;;;4.03;3.63;;;25.20;99.90;;;;;;6168971;23;20005;-73
2023/06/19 09:37:33;;;;;;;3.70;3.15;;;25.30;99.90;;;;;;6171961;23;20005;-72
2023/06/19 09:40:02;;;;;;;3.42;3.13;;;25.40;99.90;;;;;;6171749;23;20008;-74
2023/06/19 09:42:34;;;;;;;3.63;3.33;;;25.40;99.90;;;;;;6172129;23;20009;-72
2023/06/19 09:45:05;;;;;;;4.05;3.65;;;25.40;99.90;;;;;;6170903;23;20522;-73
2023/06/19 09:47:43;;;;;;;6.15;3.05;;;25.40;99.90;;;;;;6170573;23;20335;-72
2023/06/19 09:50:12;;;;;;;7.13;3.60;;;25.30;99.90;;;;;;6169522;23;20016;-74
2023/06/19 09:52:39;;;;;;;3.35;3.05;;;25.40;99.90;;;;;;6172822;23;20001;-73
2023/06/19 09:55:06;;;;;;;4.38;3.88;;;25.50;99.90;;;;;;6173222;23;20019;-73
2023/06/19 09:57:37;;;;;;;8.52;3.53;;;25.50;99.90;;;;;;6169982;23;20006;-73
2023/06/19 10:00:11;;;;;;;5.00;3.60;;;25.60;99.90;;;;;;6172223;23;20048;-74
2023/06/19 10:02:38;;;;;;;4.57;3.70;;;25.70;99.90;;;;;;6169747;23;20039;-74
2023/06/19 10:05:04;;;;;;;3.53;3.22;;;25.70;99.90;;;;;;6170417;23;20002;-74
2023/06/19 10:07:34;;;;;;;8.77;4.20;;;25.80;99.90;;;;;;6172803;23;20009;-74
2023/06/19 10:10:06;;;;;;;4.57;3.92;;;25.80;99.90;;;;;;6174102;23;20049;-65
2023/06/19 10:12:44;;;;;;;5.35;3.60;;;25.90;99.90;;;;;;6172134;23;20268;-65
2023/06/19 10:15:18;;;;;;;4.80;3.22;;;25.90;99.90;;;;;;6171018;23;20009;-67
2023/06/19 10:17:49;;;;;;;5.80;3.55;;;26.00;99.90;;;;;;6170583;23;20005;-65
2023/06/19 10:20:31;;;;;;;4.60;4.15;;;26.10;99.90;;;;;;6167804;23;20036;-65
2023/06/19 10:23:11;;;;;;;4.40;4.00;;;26.20;99.90;;;;;;6166199;23;20141;-65
2023/06/19 10:25:38;;;;;;;3.97;3.40;;;26.20;99.90;;;;;;6172504;23;20016;-65
2023/06/19 10:28:16;;;;;;;4.35;3.80;;;26.30;99.90;;;;;;6173149;23;20019;-65
2023/06/19 10:30:42;;;;;;;4.05;3.65;;;26.40;99.90;;;;;;6169383;23;20012;-66
2023/06/19 10:33:07;;;;;;;4.10;3.80;;;26.40;99.90;;;;;;6143961;23;20013;-65
2023/06/19 10:35:40;;;;;;;6.10;3.47;;;26.50;99.80;;;;;;6171773;23;20084;-65
2023/06/19 10:38:08;;;;;;;6.50;3.83;;;26.50;99.40;;;;;;6173753;23;20744;-66
2023/06/19 10:40:36;;;;;;;4.07;3.45;;;26.50;98.80;;;;;;6144055;23;20707;-66
2023/06/19 10:43:02;;;;;;;3.80;3.17;;;26.60;99.40;;;;;;6172986;23;20027;-66
2023/06/19 10:45:28;;;;;;;4.05;3.30;;;26.60;98.10;;;;;;6169777;23;20461;-66
2023/06/19 10:47:55;;;;;;;3.90;3.50;;;26.70;97.90;;;;;;6170506;23;20052;-66
2023/06/19 10:50:22;;;;;;;3.90;3.55;;;26.70;99.90;;;;;;6171041;23;20480;-66
2023/06/19 10:52:52;;;;;;;3.60;3.28;;;26.80;99.80;;;;;;6171874;23;20393;-66
2023/06/19 10:55:18;;;;;;;5.00;3.33;;;26.90;99.20;;;;;;6171313;23;20020;-66
2023/06/19 10:57:48;;;;;;;5.05;3.40;;;26.90;99.70;;;;;;6145452;23;20276;-66
2023/06/19 11:00:30;;;;;;;4.65;3.42;;;27.00;99.40;;;;;;6171327;23;20001;-65
2023/06/19 11:02:57;;;;;;;6.00;3.55;;;27.10;97.70;;;;;;6167734;23;20017;-66
2023/06/19 11:05:24;;;;;;;4.72;3.72;;;27.10;97.90;;;;;;6142011;23;20005;-65
2023/06/19 11:07:57;;;;;;;5.47;3.45;;;27.10;97.30;;;;;;6171393;23;20084;-66
2023/06/19 11:10:28;;;;;;;3.42;3.13;;;27.20;97.00;;;;;;6169655;23;20642;-66
2023/06/19 11:12:55;;;;;;;5.65;3.15;;;27.00;96.00;;;;;;6169241;23;20025;-65
2023/06/19 11:15:32;;;;;;;3.67;3.38;;;27.00;96.40;;;;;;6167506;23;20028;-66
2023/06/19 11:17:59;;;;;;;4.22;3.35;;;26.90;96.80;;;;;;6168025;23;20016;-66
2023/06/19 11:20:28;;;;;;;5.85;3.90;;;27.00;97.30;;;;;;6167604;23;20000;-66
2023/06/19 11:23:00;;;;;;;3.58;3.28;;;27.10;97.20;;;;;;6170284;23;20009;-66
2023/06/19 11:25:39;;;;;;;3.95;3.35;;;27.10;96.60;;;;;;6171150;23;20023;-66
2023/06/19 11:28:14;;;;;;;3.30;3.10;;;27.20;97.30;;;;;;6169817;23;20431;-66
2023/06/19 11:30:40;;;;;;;3.58;3.28;;;27.30;97.00;;;;;;6166031;23;20008;-66
2023/06/19 11:33:22;;;;;;;3.40;3.10;;;27.40;97.80;;;;;;6143494;23;20020;-66
2023/06/19 11:35:49;;;;;;;;;;;27.40;94.60;;;;;;6168658;23;20000;-65
2023/06/19 11:38:22;;;;;;;3.95;3.53;;;27.40;94.60;;;;;;6171381;23;19908;-66
2023/06/19 11:40:49;;;;;;;3.53;3.28;;;27.40;95.40;;;;;;6170286;23;20009;-72
2023/06/19 11:43:29;;;;;;;12.40;3.70;;;27.40;94.40;;;;;;6171897;23;20451;-72
2023/06/19 11:46:05;;;;;;;7.50;4.05;;;27.40;94.90;;;;;;6169918;23;20005;-72
2023/06/19 11:48:31;;;;;;;4.88;3.50;;;27.40;95.90;;;;;;6144752;23;20020;-72
2023/06/19 11:50:57;;;;;;;4.75;3.20;;;27.50;95.30;;;;;;6171211;23;20005;-72
2023/06/19 11:53:23;;;;;;;5.20;4.28;;;27.50;95.10;;;;;;6172970;23;20087;-72
2023/06/19 11:55:50;;;;;;;3.53;3.22;;;27.50;95.20;;;;;;6168788;23;20001;-72
2023/06/19 11:58:16;;;;;;;3.42;3.00;;;27.60;95.70;;;;;;6172758;23;20031;-72
2023/06/19 12:00:43;;;;;;;5.50;3.50;;;27.60;94.60;;;;;;6171076;23;20602;-65
2023/06/19 12:03:09;;;;;;;3.58;3.28;;;27.60;93.70;;;;;;6166650;23;20096;-65
2023/06/19 12:05:35;;;;;;;3.42;3.13;;;27.50;93.00;;;;;;6163588;23;20587;-65
2023/06/19 12:08:02;;;;;;;5.35;3.53;;;27.40;92.80;;;;;;6166993;23;20018;-65
2023/06/19 12:10:28;;;;;;;6.05;3.40;;;27.50;94.20;;;;;;6163133;23;20011;-65
2023/06/19 12:12:54;;;;;;;4.07;3.15;;;27.60;94.60;;;;;;6164594;23;20013;-65
2023/06/19 12:15:19;;;;;;;5.13;3.50;;;27.80;93.10;;;;;;6163654;23;20422;-65
2023/06/19 12:17:46;;;;;;;3.47;3.17;;;27.80;95.00;;;;;;6162317;23;20430;-65
2023/06/19 12:20:13;;;;;;;4.15;3.45;;;27.90;92.20;;;;;;6162922;23;20008;-66
2023/06/19 12:22:39;;;;;;;3.88;3.35;;;27.90;93.10;;;;;;6162911;23;20020;-71
2023/06/19 12:25:05;;;;;;;6.72;3.47;;;27.90;92.90;;;;;;6166129;23;20063;-70
2023/06/19 12:27:31;;;;;;;6.38;3.58;;;27.80;93.60;;;;;;6162476;23;20008;-72
2023/06/19 12:29:57;;;;;;;9.20;3.85;;;27.80;93.80;;;;;;6166630;23;20149;-73
2023/06/19 12:32:22;;;;;;;3.58;3.28;;;27.90;93.60;;;;;;6156739;23;20320;-72
2023/06/19 12:34:49;;;;;;;4.90;3.53;;;27.90;93.90;;;;;;6163369;23;20005;-71
2023/06/19 12:37:17;;;;;;;3.90;3.50;;;28.00;91.80;;;;;;6168027;23;20025;-62
2023/06/19 12:39:43;;;;;;;6.13;3.75;;;27.80;91.40;;;;;;6165889;23;20009;-62
2023/06/19 12:42:11;;;;;;;20.10;4.05;;;27.80;91.70;;;;;;6168945;23;20103;-62
2023/06/19 12:44:38;;;;;;;5.03;3.42;;;27.80;92.70;;;;;;6169787;23;20013;-62
2023/06/19 12:47:04;;;;;;;4.75;3.38;;;27.80;91.80;;;;;;6170586;23;20001;-62
2023/06/19 12:49:30;;;;;;;18.25;3.55;;;27.50;90.30;;;;;;6171733;23;20009;-62
2023/06/19 12:51:57;;;;;;;3.92;3.60;;;27.40;91.70;;;;;;6171796;23;20008;-62
2023/06/19 12:54:22;;;;;;;6.70;3.53;;;27.50;92.80;;;;;;6171521;23;20065;-62
2023/06/19 12:56:49;;;;;;;6.70;3.70;;;27.50;91.80;;;;;;6170196;23;20327;-71
2023/06/19 12:59:15;;;;;;;6.03;3.55;;;27.60;91.90;;;;;;6171330;23;20064;-70
2023/06/19 13:01:42;;;;;;;4.70;3.90;;;27.70;91.60;;;;;;6170166;23;20080;-71